Terminal Aerodrome Forecast
Issued by NWS Wilmington, OH

Current Version | Previous Version | Text Only | Print | Product List | Glossary Off
Versions: 1 2 3 4 5 6 7 8 9 10 11 12 13 14 15 16 17 18 19 20 21 22 23 24

051
FTUS41 KILN 030523
TAFCVG
TAF
KCVG 030523Z 0306/0412 16020G28KT 4SM -SHRA BR VCTS OVC035CB
      WS020/19055KT
      TEMPO 0306/0308 26025G35KT 2SM +TSRA OVC025CB
     FM030800 19016G26KT 5SM BR VCSH OVC015
     FM031200 22012G22KT P6SM BKN025
     FM031400 24014G24KT P6SM SCT035
     FM031900 25016G26KT P6SM BKN035
     FM040400 26012G20KT P6SM BKN025=

USA.gov is the U.S. government's official web portal to all federal, state and local government web resources and services.